createdAt,value
2022-09-13T00:01:09.110Z,12.90
2022-09-13T00:03:35.845Z,12.90
2022-09-13T00:06:15.706Z,12.70
2022-09-13T00:08:43.297Z,12.50
2022-09-13T00:11:23.309Z,12.60
2022-09-13T00:13:50.527Z,12.60
2022-09-13T00:16:19.650Z,13.40
2022-09-13T00:18:46.797Z,12.60
2022-09-13T00:21:16.403Z,12.60
2022-09-13T00:23:48.253Z,12.50
2022-09-13T00:26:17.439Z,12.70
2022-09-13T00:28:45.428Z,12.50
2022-09-13T00:31:12.750Z,12.40
2022-09-13T00:33:39.573Z,12.30
2022-09-13T00:36:11.326Z,12.20
2022-09-13T00:38:39.651Z,12.30
2022-09-13T00:41:08.826Z,12.30
2022-09-13T00:43:48.192Z,12.40
2022-09-13T00:46:42.683Z,12.30
2022-09-13T00:49:15.273Z,12.40
2022-09-13T00:51:48.023Z,12.40
2022-09-13T00:54:16.571Z,12.30
2022-09-13T00:56:49.962Z,12.20
2022-09-13T00:59:43.807Z,12.30
2022-09-13T01:02:10.901Z,12.50
2022-09-13T01:04:38.630Z,12.70
2022-09-13T01:07:09.787Z,12.70
2022-09-13T01:09:39.999Z,12.70
2022-09-13T01:12:18.792Z,12.60
2022-09-13T01:14:47.640Z,12.40
2022-09-13T01:17:14.331Z,12.50
2022-09-13T01:19:41.545Z,12.50
2022-09-13T01:22:34.935Z,12.40
2022-09-13T01:25:19.956Z,12.30
2022-09-13T01:28:09.899Z,12.10
2022-09-13T01:30:41.820Z,12.10
2022-09-13T01:33:18.098Z,11.80
2022-09-13T01:36:05.552Z,11.80
2022-09-13T01:38:57.460Z,12.00
2022-09-13T01:41:48.972Z,12.10
2022-09-13T01:44:28.314Z,12.00
2022-09-13T01:47:32.867Z,11.90
2022-09-13T01:50:11.661Z,12.00
2022-09-13T01:52:54.008Z,12.00
2022-09-13T01:55:47.845Z,12.00
2022-09-13T01:58:22.758Z,11.90
2022-09-13T02:01:11.359Z,11.90
2022-09-13T02:03:44.658Z,12.00
2022-09-13T02:06:22.304Z,12.00
2022-09-13T02:08:56.471Z,12.00
2022-09-13T02:11:24.054Z,11.90
2022-09-13T02:13:59.975Z,11.90
2022-09-13T02:16:32.187Z,12.00
2022-09-13T02:19:03.924Z,12.10
2022-09-13T02:21:35.920Z,12.00
2022-09-13T02:24:07.800Z,12.10
2022-09-13T02:26:38.122Z,12.00
2022-09-13T02:29:11.431Z,11.80
2022-09-13T02:31:44.591Z,11.80
2022-09-13T02:34:18.364Z,11.80
2022-09-13T02:36:48.794Z,11.80
2022-09-13T02:39:17.653Z,11.50
2022-09-13T02:41:58.754Z,11.50
2022-09-13T02:44:41.804Z,11.70
2022-09-13T02:47:27.335Z,11.70
2022-09-13T02:50:16.040Z,12.40
2022-09-13T02:52:52.921Z,11.60
2022-09-13T02:55:30.858Z,11.50
2022-09-13T02:58:09.788Z,11.50
2022-09-13T03:00:36.947Z,11.60
2022-09-13T03:03:07.192Z,11.40
2022-09-13T03:05:33.956Z,11.40
2022-09-13T03:08:01.633Z,11.40
2022-09-13T03:10:43.638Z,11.60
2022-09-13T03:13:23.613Z,11.60
2022-09-13T03:15:59.955Z,11.60
2022-09-13T03:19:08.554Z,12.00
2022-09-13T03:21:46.080Z,11.70
2022-09-13T03:24:21.522Z,11.70
2022-09-13T03:27:15.637Z,11.60
2022-09-13T03:29:57.617Z,11.70
2022-09-13T03:33:09.526Z,11.50
2022-09-13T03:35:54.725Z,11.60
2022-09-13T03:38:31.550Z,11.70
2022-09-13T03:41:07.333Z,11.60
2022-09-13T03:43:39.748Z,11.60
2022-09-13T03:46:11.350Z,11.60
2022-09-13T03:48:40.585Z,11.50
2022-09-13T03:51:08.552Z,11.60
2022-09-13T03:53:39.141Z,11.70
2022-09-13T03:56:16.995Z,11.80
2022-09-13T03:58:43.963Z,11.70
2022-09-13T04:01:10.745Z,11.60
2022-09-13T04:03:38.432Z,11.50
2022-09-13T04:06:06.382Z,11.50
2022-09-13T04:08:33.857Z,11.30
2022-09-13T04:11:01.623Z,11.20
2022-09-13T04:13:28.834Z,11.60
2022-09-13T04:15:55.703Z,11.40
2022-09-13T04:18:22.323Z,11.50
2022-09-13T04:20:57.337Z,11.60
2022-09-13T04:23:25.461Z,11.50
2022-09-13T04:25:52.180Z,11.30
2022-09-13T04:28:19.883Z,11.40
2022-09-13T04:30:48.189Z,11.40
2022-09-13T04:33:16.090Z,11.50
2022-09-13T04:35:43.379Z,11.60
2022-09-13T04:38:10.122Z,12.00
2022-09-13T04:40:37.335Z,11.50
2022-09-13T04:43:04.305Z,11.50
2022-09-13T04:45:31.040Z,11.40
2022-09-13T04:47:57.737Z,11.50
2022-09-13T04:50:25.712Z,11.50
2022-09-13T04:52:55.412Z,11.60
2022-09-13T04:55:22.495Z,11.50
2022-09-13T04:57:53.611Z,11.40
2022-09-13T05:00:20.329Z,11.50
2022-09-13T05:02:46.975Z,11.60
2022-09-13T05:05:13.956Z,11.50
2022-09-13T05:07:40.786Z,11.60
2022-09-13T05:10:08.044Z,11.50
2022-09-13T05:12:34.686Z,11.50
2022-09-13T05:15:01.297Z,11.40
2022-09-13T05:17:30.242Z,11.40
2022-09-13T05:19:56.857Z,11.20
2022-09-13T05:22:23.579Z,11.20
2022-09-13T05:24:50.313Z,12.00
2022-09-13T05:27:17.005Z,11.60
2022-09-13T05:29:43.781Z,11.70
2022-09-13T05:32:10.455Z,11.70
2022-09-13T05:34:37.294Z,11.80
2022-09-13T05:37:04.104Z,12.10
2022-09-13T05:39:54.332Z,12.10
2022-09-13T05:42:17.414Z,12.30
2022-09-13T05:44:44.049Z,12.20
2022-09-13T05:47:13.658Z,12.10
2022-09-13T05:49:56.758Z,12.10
2022-09-13T05:52:27.009Z,12.20
2022-09-13T05:54:53.827Z,12.80
2022-09-13T05:57:20.497Z,12.30
2022-09-13T05:59:48.161Z,12.30
2022-09-13T06:02:14.858Z,12.40
2022-09-13T06:04:41.548Z,12.70
2022-09-13T06:07:14.098Z,12.50
2022-09-13T06:09:41.555Z,12.70
2022-09-13T06:12:08.236Z,12.70
2022-09-13T06:14:34.881Z,12.80
2022-09-13T06:17:01.544Z,13.00
2022-09-13T06:19:30.334Z,13.10
2022-09-13T06:21:56.976Z,13.40
2022-09-13T06:24:23.628Z,14.50
2022-09-13T06:26:50.290Z,13.40
2022-09-13T06:29:17.094Z,14.40
2022-09-13T06:31:45.203Z,13.70
2022-09-13T06:34:17.435Z,14.30
2022-09-13T06:36:44.140Z,14.00
2022-09-13T06:39:10.854Z,14.00
2022-09-13T06:41:37.863Z,14.20
2022-09-13T06:44:05.420Z,14.20
2022-09-13T06:46:34.271Z,14.30
2022-09-13T06:49:06.445Z,14.30
2022-09-13T06:51:34.587Z,14.60
2022-09-13T06:54:03.836Z,14.40
2022-09-13T06:56:33.559Z,14.50
2022-09-13T06:59:03.591Z,15.00
2022-09-13T07:01:41.605Z,14.60
2022-09-13T07:04:10.857Z,14.60
2022-09-13T07:06:43.502Z,14.60
2022-09-13T07:09:21.224Z,14.70
2022-09-13T07:11:50.145Z,15.10
2022-09-13T07:14:23.076Z,15.00
2022-09-13T07:16:51.733Z,14.90
2022-09-13T07:19:36.766Z,15.20
2022-09-13T07:22:04.843Z,14.90
2022-09-13T07:24:31.509Z,15.00
2022-09-13T07:26:58.632Z,15.00
2022-09-13T07:29:25.477Z,15.20
2022-09-13T07:31:54.444Z,15.20
2022-09-13T07:34:22.993Z,15.40
2022-09-13T07:36:50.147Z,15.50
2022-09-13T07:39:22.027Z,16.20
2022-09-13T07:41:49.020Z,15.80
2022-09-13T07:44:15.766Z,15.70
2022-09-13T07:46:45.708Z,15.70
2022-09-13T07:49:14.503Z,15.80
2022-09-13T07:51:42.963Z,16.50
2022-09-13T07:54:15.311Z,16.00
2022-09-13T07:56:42.713Z,16.00
2022-09-13T07:59:15.070Z,16.30
2022-09-13T08:01:44.660Z,16.50
2022-09-13T08:04:17.596Z,16.50
2022-09-13T08:06:46.302Z,16.50
2022-09-13T08:09:14.105Z,16.60
2022-09-13T08:11:43.386Z,16.80
2022-09-13T08:14:14.243Z,16.60
2022-09-13T08:16:41.511Z,17.20
2022-09-13T08:19:12.904Z,17.20
2022-09-13T08:21:40.880Z,17.00
2022-09-13T08:24:13.448Z,17.10
2022-09-13T08:26:40.472Z,17.10
2022-09-13T08:29:08.420Z,17.10
2022-09-13T08:31:35.447Z,17.30
2022-09-13T08:34:02.284Z,17.60
2022-09-13T08:36:29.283Z,17.50
2022-09-13T08:39:01.115Z,17.70
2022-09-13T08:42:01.279Z,17.70
2022-09-13T08:44:33.845Z,17.80
2022-09-13T08:47:22.384Z,18.00
2022-09-13T08:49:52.320Z,18.10
2022-09-13T08:52:33.661Z,18.30
2022-09-13T08:55:06.919Z,18.30
2022-09-13T08:57:44.546Z,18.40
2022-09-13T09:00:23.216Z,18.50
2022-09-13T09:03:07.689Z,18.50
2022-09-13T09:05:52.052Z,18.60
2022-09-13T09:08:43.418Z,18.60
2022-09-13T09:11:25.637Z,18.70
2022-09-13T09:13:59.355Z,18.90
2022-09-13T09:16:56.663Z,19.10
2022-09-13T09:19:34.615Z,19.00
2022-09-13T09:22:05.664Z,19.00
2022-09-13T09:24:37.415Z,19.20
2022-09-13T09:27:15.044Z,19.60
2022-09-13T09:29:44.540Z,19.50
2022-09-13T09:32:32.823Z,19.60
2022-09-13T09:35:10.383Z,19.70
2022-09-13T09:37:38.042Z,19.80
2022-09-13T09:40:10.209Z,19.90
2022-09-13T09:42:48.386Z,19.90
2022-09-13T09:45:31.765Z,20.00
2022-09-13T09:48:05.546Z,20.00
2022-09-13T09:50:38.358Z,20.00
2022-09-13T09:53:26.979Z,20.20
2022-09-13T09:56:02.674Z,20.30
2022-09-13T09:58:44.035Z,20.40
2022-09-13T10:01:27.415Z,20.50
2022-09-13T10:04:12.317Z,20.60
2022-09-13T10:06:42.500Z,20.60
2022-09-13T10:09:22.978Z,20.70
2022-09-13T10:11:58.390Z,20.90
2022-09-13T10:14:31.289Z,21.00
2022-09-13T10:17:22.762Z,21.40
2022-09-13T10:20:26.591Z,21.20
2022-09-13T10:23:19.552Z,21.30
2022-09-13T10:25:56.700Z,21.30
2022-09-13T10:28:24.712Z,21.40
2022-09-13T10:30:56.420Z,21.60
2022-09-13T10:33:37.809Z,21.80
2022-09-13T10:36:51.594Z,21.70
2022-09-13T10:39:21.425Z,21.80
2022-09-13T10:41:55.698Z,21.90
2022-09-13T10:44:47.571Z,22.10
2022-09-13T10:47:40.163Z,22.30
2022-09-13T10:50:27.765Z,22.60
2022-09-13T10:52:59.125Z,22.80
2022-09-13T10:55:31.374Z,22.80
2022-09-13T10:58:07.638Z,23.00
2022-09-13T11:00:43.468Z,22.90
2022-09-13T11:03:51.200Z,23.00
2022-09-13T11:06:45.256Z,22.90
2022-09-13T11:09:20.217Z,22.90
2022-09-13T11:11:58.351Z,22.90
2022-09-13T11:14:37.322Z,23.00
2022-09-13T11:17:18.609Z,23.00
2022-09-13T11:20:03.822Z,23.10
2022-09-13T11:23:06.066Z,23.10
2022-09-13T11:25:38.787Z,23.20
2022-09-13T11:28:27.276Z,23.20
2022-09-13T11:31:19.302Z,23.20
2022-09-13T11:34:19.928Z,23.40
2022-09-13T11:37:16.296Z,23.50
2022-09-13T11:39:58.861Z,23.70
2022-09-13T11:42:57.986Z,23.80
2022-09-13T11:45:28.242Z,23.80
2022-09-13T11:48:12.253Z,23.90
2022-09-13T11:51:17.968Z,23.90
2022-09-13T11:54:12.173Z,24.00
2022-09-13T11:56:42.990Z,24.30
2022-09-13T11:59:31.065Z,24.40
2022-09-13T12:02:04.072Z,24.50
2022-09-13T12:04:37.666Z,24.60
2022-09-13T12:07:14.928Z,24.90
2022-09-13T12:09:51.783Z,25.00
2022-09-13T12:12:21.665Z,24.80
2022-09-13T12:14:58.477Z,24.90
2022-09-13T12:17:44.468Z,25.10
2022-09-13T12:20:20.567Z,25.20
2022-09-13T12:22:47.821Z,25.30
2022-09-13T12:25:24.974Z,25.30
2022-09-13T12:27:59.605Z,25.30
2022-09-13T12:30:52.754Z,25.10
2022-09-13T12:33:19.980Z,25.30
2022-09-13T12:36:08.397Z,25.70
2022-09-13T12:39:00.529Z,25.80
2022-09-13T12:41:44.408Z,26.00
2022-09-13T12:44:23.630Z,26.30
2022-09-13T12:47:02.254Z,26.30
2022-09-13T12:49:42.755Z,25.90
2022-09-13T12:52:32.889Z,26.10
2022-09-13T12:55:47.166Z,26.30
2022-09-13T12:58:44.612Z,26.00
2022-09-13T13:01:21.807Z,26.10
2022-09-13T13:04:02.986Z,26.10
2022-09-13T13:06:35.639Z,26.00
2022-09-13T13:09:07.033Z,25.90
2022-09-13T13:11:46.141Z,25.70
2022-09-13T13:14:56.705Z,25.60
2022-09-13T13:17:43.682Z,25.70
2022-09-13T13:20:47.364Z,25.50
2022-09-13T13:23:25.705Z,25.50
2022-09-13T13:26:13.687Z,25.40
2022-09-13T13:28:43.408Z,25.70
2022-09-13T13:31:10.852Z,25.70
2022-09-13T13:33:49.399Z,25.80
2022-09-13T13:36:23.382Z,25.70
2022-09-13T13:38:52.364Z,25.70
2022-09-13T13:41:35.952Z,25.50
2022-09-13T13:44:22.623Z,25.40
2022-09-13T13:46:53.754Z,25.20
2022-09-13T13:49:32.846Z,25.00
2022-09-13T13:52:08.726Z,24.80
2022-09-13T13:55:06.435Z,24.60
2022-09-13T13:57:52.338Z,24.50
2022-09-13T14:00:26.884Z,24.30
2022-09-13T14:02:53.518Z,24.20
2022-09-13T14:05:38.386Z,24.20
2022-09-13T14:08:30.099Z,24.20
2022-09-13T14:11:21.767Z,24.20
2022-09-13T14:14:12.583Z,24.20
2022-09-13T14:17:21.413Z,24.20
2022-09-13T14:19:56.469Z,24.30
2022-09-13T14:22:25.415Z,24.40
2022-09-13T14:24:57.543Z,24.70
2022-09-13T14:27:35.171Z,24.80
2022-09-13T14:30:05.856Z,24.60
2022-09-13T14:32:42.416Z,24.50
2022-09-13T14:35:39.993Z,24.30
2022-09-13T14:38:11.621Z,24.20
2022-09-13T14:40:38.577Z,24.20
2022-09-13T14:43:28.405Z,23.90
2022-09-13T14:46:09.875Z,23.70
2022-09-13T14:48:41.520Z,23.80
2022-09-13T14:51:18.292Z,23.90
2022-09-13T14:53:47.810Z,23.90
2022-09-13T14:56:37.557Z,24.00
2022-09-13T14:59:12.326Z,24.00
2022-09-13T15:01:39.019Z,24.10
2022-09-13T15:04:07.434Z,24.10
2022-09-13T15:06:40.026Z,24.00
2022-09-13T15:09:10.148Z,24.10
2022-09-13T15:11:41.327Z,24.10
2022-09-13T15:14:35.113Z,24.20
2022-09-13T15:17:10.645Z,24.20
2022-09-13T15:20:04.636Z,24.10
2022-09-13T15:22:35.639Z,24.20
2022-09-13T15:25:03.001Z,24.20
2022-09-13T15:27:32.243Z,24.20
2022-09-13T15:30:06.063Z,24.10
2022-09-13T15:32:40.155Z,24.10
2022-09-13T15:35:22.003Z,24.10
2022-09-13T15:38:00.541Z,24.20
2022-09-13T15:40:29.775Z,24.10
2022-09-13T15:42:56.743Z,24.00
2022-09-13T15:45:23.862Z,23.90
2022-09-13T15:47:52.539Z,23.70
2022-09-13T15:50:30.935Z,23.70
2022-09-13T15:53:01.375Z,23.60
2022-09-13T15:55:28.901Z,23.50
2022-09-13T15:57:55.681Z,23.60
2022-09-13T16:00:28.377Z,23.50
2022-09-13T16:02:55.177Z,23.40
2022-09-13T16:05:22.087Z,23.40
2022-09-13T16:07:48.943Z,23.30
2022-09-13T16:10:23.363Z,23.50
2022-09-13T16:12:50.178Z,23.40
2022-09-13T16:15:17.099Z,23.40
2022-09-13T16:17:43.821Z,23.30
2022-09-13T16:20:14.578Z,23.30
2022-09-13T16:22:41.497Z,23.20
2022-09-13T16:25:09.665Z,23.20
2022-09-13T16:27:36.934Z,23.20
2022-09-13T16:30:04.192Z,23.20
2022-09-13T16:32:30.926Z,23.10
2022-09-13T16:34:57.794Z,23.00
2022-09-13T16:37:24.469Z,22.90
2022-09-13T16:39:51.290Z,22.80
2022-09-13T16:42:18.136Z,22.70
2022-09-13T16:44:45.063Z,22.60
2022-09-13T16:47:12.151Z,22.40
2022-09-13T16:49:38.899Z,22.30
2022-09-13T16:52:05.906Z,22.20
2022-09-13T16:54:35.060Z,22.10
2022-09-13T16:57:06.306Z,22.00
2022-09-13T16:59:33.706Z,21.90
2022-09-13T17:02:00.788Z,21.80
2022-09-13T17:04:27.626Z,21.70
2022-09-13T17:06:54.257Z,21.60
2022-09-13T17:09:22.500Z,21.50
2022-09-13T17:11:49.821Z,21.40
2022-09-13T17:14:17.979Z,21.30
2022-09-13T17:16:52.331Z,21.20
2022-09-13T17:19:23.440Z,20.90
2022-09-13T17:21:50.878Z,20.90
2022-09-13T17:24:18.384Z,20.90
2022-09-13T17:26:46.750Z,20.80
2022-09-13T17:29:14.789Z,20.70
2022-09-13T17:31:43.369Z,20.60
2022-09-13T17:34:11.198Z,20.50
2022-09-13T17:36:39.851Z,20.50
2022-09-13T17:39:07.556Z,20.50
2022-09-13T17:41:34.255Z,20.50
2022-09-13T17:44:01.145Z,20.40
2022-09-13T17:46:30.248Z,20.30
2022-09-13T17:48:59.206Z,20.20
2022-09-13T17:51:29.102Z,20.20
2022-09-13T17:54:01.440Z,20.00
2022-09-13T17:56:33.753Z,20.00
2022-09-13T17:59:12.334Z,19.80
2022-09-13T18:01:41.889Z,19.80
2022-09-13T18:04:10.508Z,19.80
2022-09-13T18:06:38.739Z,19.70
2022-09-13T18:09:06.176Z,19.80
2022-09-13T18:11:32.857Z,19.70
2022-09-13T18:13:59.658Z,19.70
2022-09-13T18:16:28.652Z,19.60
2022-09-13T18:18:56.539Z,19.50
2022-09-13T18:21:26.205Z,19.50
2022-09-13T18:23:55.379Z,19.50
2022-09-13T18:26:23.883Z,19.50
2022-09-13T18:29:01.707Z,19.50
2022-09-13T18:31:30.268Z,19.40
2022-09-13T18:33:59.092Z,19.20
2022-09-13T18:36:27.649Z,19.30
2022-09-13T18:38:56.268Z,19.20
2022-09-13T18:41:27.695Z,19.20
2022-09-13T18:43:56.174Z,19.10
2022-09-13T18:46:25.838Z,19.20
2022-09-13T18:48:54.734Z,19.10
2022-09-13T18:51:23.435Z,19.10
2022-09-13T18:53:50.599Z,19.00
2022-09-13T18:56:20.718Z,18.80
2022-09-13T18:58:47.771Z,18.70
2022-09-13T19:01:20.874Z,18.70
2022-09-13T19:03:48.889Z,18.60
2022-09-13T19:06:19.064Z,18.70
2022-09-13T19:08:47.306Z,18.60
2022-09-13T19:11:35.209Z,18.70
2022-09-13T19:14:01.650Z,18.70
2022-09-13T19:16:28.436Z,18.70
2022-09-13T19:18:56.735Z,18.70
2022-09-13T19:21:29.632Z,18.70
2022-09-13T19:23:59.839Z,18.70
2022-09-13T19:26:30.991Z,18.80
2022-09-13T19:29:05.092Z,19.20
2022-09-13T19:31:35.156Z,18.90
2022-09-13T19:34:02.362Z,18.90
2022-09-13T19:36:34.075Z,18.90
2022-09-13T19:39:01.439Z,19.00
2022-09-13T19:41:32.486Z,18.90
2022-09-13T19:44:01.228Z,18.90
2022-09-13T19:46:37.850Z,18.90
2022-09-13T19:49:05.924Z,18.70
2022-09-13T19:51:37.434Z,18.70
2022-09-13T19:54:05.548Z,18.70
2022-09-13T19:56:35.631Z,18.50
2022-09-13T19:59:03.015Z,18.50
2022-09-13T20:01:39.444Z,18.60
2022-09-13T20:04:09.481Z,18.50
2022-09-13T20:06:41.556Z,18.50
2022-09-13T20:09:09.598Z,18.40
2022-09-13T20:11:42.130Z,18.40
2022-09-13T20:14:10.156Z,18.40
2022-09-13T20:16:39.482Z,18.40
2022-09-13T20:19:23.904Z,18.30
2022-09-13T20:21:55.457Z,18.30
2022-09-13T20:24:22.276Z,18.40
2022-09-13T20:26:52.040Z,18.50
2022-09-13T20:29:19.089Z,18.80
2022-09-13T20:31:45.797Z,18.70
2022-09-13T20:34:15.039Z,19.00
2022-09-13T20:36:44.193Z,18.60
2022-09-13T20:39:11.425Z,18.70
2022-09-13T20:41:38.333Z,18.60
2022-09-13T20:44:05.272Z,18.50
2022-09-13T20:46:32.150Z,18.20
2022-09-13T20:48:59.380Z,18.20
2022-09-13T20:51:27.604Z,18.10
2022-09-13T20:54:00.552Z,18.10
2022-09-13T20:56:28.844Z,18.10
2022-09-13T20:58:58.402Z,18.20
2022-09-13T21:01:27.162Z,18.50
2022-09-13T21:03:55.315Z,18.30
2022-09-13T21:06:26.167Z,18.40
2022-09-13T21:08:54.029Z,18.40
2022-09-13T21:11:23.449Z,18.50
2022-09-13T21:13:53.435Z,18.50
2022-09-13T21:16:41.203Z,18.40
2022-09-13T21:19:09.127Z,18.40
2022-09-13T21:21:38.417Z,18.30
2022-09-13T21:24:08.650Z,18.30
2022-09-13T21:26:36.659Z,18.10
2022-09-13T21:29:03.372Z,18.20
2022-09-13T21:31:31.740Z,18.10
2022-09-13T21:34:01.121Z,18.50
2022-09-13T21:36:29.212Z,18.10
2022-09-13T21:38:56.633Z,18.10
2022-09-13T21:41:25.500Z,18.10
2022-09-13T21:43:52.382Z,18.10
2022-09-13T21:46:22.672Z,18.10
2022-09-13T21:48:52.413Z,18.20
2022-09-13T21:51:24.900Z,18.20
2022-09-13T21:53:58.160Z,18.10
2022-09-13T21:56:28.982Z,18.10
2022-09-13T21:59:00.394Z,18.10
2022-09-13T22:01:30.589Z,18.20
2022-09-13T22:03:58.456Z,18.20
2022-09-13T22:06:29.120Z,18.00
2022-09-13T22:09:00.485Z,18.10
2022-09-13T22:11:30.520Z,18.10
2022-09-13T22:13:58.491Z,18.20
2022-09-13T22:16:28.401Z,18.10
2022-09-13T22:19:04.231Z,18.10
2022-09-13T22:21:37.339Z,18.00
2022-09-13T22:24:05.653Z,18.10
2022-09-13T22:26:39.700Z,18.10
2022-09-13T22:29:07.603Z,18.10
2022-09-13T22:31:36.957Z,18.30
2022-09-13T22:34:05.091Z,18.00
2022-09-13T22:36:32.094Z,17.90
2022-09-13T22:38:59.174Z,18.00
2022-09-13T22:41:28.670Z,17.80
2022-09-13T22:43:55.916Z,17.80
2022-09-13T22:46:28.755Z,17.90
2022-09-13T22:48:56.220Z,18.00
2022-09-13T22:51:23.679Z,18.00
2022-09-13T22:53:51.985Z,18.20
2022-09-13T22:56:28.012Z,18.20
2022-09-13T22:59:00.344Z,18.30
2022-09-13T23:01:28.644Z,18.20
2022-09-13T23:03:56.440Z,18.20
2022-09-13T23:06:25.000Z,18.20
2022-09-13T23:08:54.465Z,18.20
2022-09-13T23:11:26.816Z,18.20
2022-09-13T23:13:55.543Z,18.20
2022-09-13T23:16:32.082Z,18.50
2022-09-13T23:19:00.267Z,18.10
2022-09-13T23:21:30.987Z,18.20
2022-09-13T23:23:59.052Z,18.10
2022-09-13T23:26:25.912Z,18.00
2022-09-13T23:28:56.432Z,18.00
2022-09-13T23:31:25.989Z,18.00
2022-09-13T23:33:55.894Z,18.00
2022-09-13T23:36:25.596Z,18.00
2022-09-13T23:38:55.467Z,17.90
2022-09-13T23:41:22.507Z,18.00
2022-09-13T23:43:50.230Z,18.20
2022-09-13T23:46:17.651Z,18.10
2022-09-13T23:48:45.281Z,18.10
2022-09-13T23:51:14.809Z,18.20
2022-09-13T23:53:41.950Z,18.10
2022-09-13T23:56:08.934Z,18.00
2022-09-13T23:58:36.823Z,18.20
